createdAt,value
2023-01-19T00:01:50.051Z,63.45
2023-01-19T00:04:55.543Z,63.89
2023-01-19T00:08:14.978Z,64.06
2023-01-19T00:11:20.992Z,63.75
2023-01-19T00:14:27.350Z,63.28
2023-01-19T00:17:32.761Z,63.59
2023-01-19T00:20:39.864Z,63.24
2023-01-19T00:23:52.745Z,63.30
2023-01-19T00:27:00.012Z,63.08
2023-01-19T00:30:05.954Z,63.74
2023-01-19T00:33:13.958Z,63.38
2023-01-19T00:36:19.595Z,63.38
2023-01-19T00:39:28.675Z,63.86
2023-01-19T00:42:44.647Z,64.01
2023-01-19T00:45:51.257Z,63.76
2023-01-19T00:48:56.838Z,63.94
2023-01-19T00:52:03.610Z,64.42
2023-01-19T00:55:14.752Z,64.06
2023-01-19T00:58:22.959Z,64.58
2023-01-19T01:01:45.324Z,64.10
2023-01-19T01:04:55.041Z,64.04
2023-01-19T01:08:00.433Z,64.05
2023-01-19T01:11:09.444Z,63.88
2023-01-19T01:14:16.461Z,64.34
2023-01-19T01:17:25.217Z,64.05
2023-01-19T01:20:34.935Z,63.96
2023-01-19T01:23:41.360Z,63.95
2023-01-19T01:26:49.627Z,64.06
2023-01-19T01:29:55.894Z,64.59
2023-01-19T01:33:01.596Z,65.08
2023-01-19T01:36:09.572Z,64.52
2023-01-19T01:39:14.938Z,64.69
2023-01-19T01:42:35.513Z,64.27
2023-01-19T01:45:43.685Z,64.78
2023-01-19T01:49:00.620Z,64.94
2023-01-19T01:52:06.383Z,65.07
2023-01-19T01:55:16.459Z,64.59
2023-01-19T01:58:26.507Z,64.06
2023-01-19T02:01:54.117Z,64.08
2023-01-19T02:05:08.065Z,63.74
2023-01-19T02:08:38.942Z,64.37
2023-01-19T02:12:01.432Z,64.54
2023-01-19T02:15:20.412Z,64.71
2023-01-19T02:18:30.701Z,64.45
2023-01-19T02:21:54.416Z,64.70
2023-01-19T02:25:03.216Z,64.07
2023-01-19T02:28:11.033Z,64.05
2023-01-19T02:31:17.514Z,64.12
2023-01-19T02:34:26.509Z,64.35
2023-01-19T02:37:40.489Z,64.48
2023-01-19T02:40:52.624Z,63.95
2023-01-19T02:44:02.035Z,63.70
2023-01-19T02:47:09.241Z,63.93
2023-01-19T02:50:50.941Z,64.24
2023-01-19T02:54:36.734Z,64.43
2023-01-19T02:58:10.338Z,64.08
2023-01-19T03:01:34.348Z,64.04
2023-01-19T03:05:09.587Z,63.55
2023-01-19T03:08:34.154Z,64.11
2023-01-19T03:11:49.129Z,64.30
2023-01-19T03:15:12.810Z,64.29
2023-01-19T03:18:26.405Z,64.04
2023-01-19T03:21:39.371Z,64.23
2023-01-19T03:24:50.749Z,63.01
2023-01-19T03:28:01.211Z,63.50
2023-01-19T03:31:25.824Z,63.85
2023-01-19T03:34:34.430Z,64.05
2023-01-19T03:37:46.170Z,63.56
2023-01-19T03:40:57.811Z,64.06
2023-01-19T03:44:05.791Z,63.99
2023-01-19T03:47:18.215Z,63.71
2023-01-19T03:50:31.002Z,63.80
2023-01-19T03:53:37.385Z,63.09
2023-01-19T03:56:44.158Z,64.03
2023-01-19T03:59:50.360Z,63.57
2023-01-19T04:02:59.258Z,63.59
2023-01-19T04:06:06.287Z,63.64
2023-01-19T04:09:12.102Z,63.62
2023-01-19T04:12:18.506Z,63.53
2023-01-19T04:15:23.883Z,63.29
2023-01-19T04:18:36.808Z,64.01
2023-01-19T04:21:42.138Z,63.71
2023-01-19T04:24:48.597Z,63.88
2023-01-19T04:27:58.126Z,63.54
2023-01-19T04:31:04.807Z,64.22
2023-01-19T04:34:13.476Z,63.89
2023-01-19T04:37:19.672Z,63.33
2023-01-19T04:40:25.056Z,63.36
2023-01-19T04:43:31.524Z,63.47
2023-01-19T04:46:36.966Z,62.68
2023-01-19T04:49:46.244Z,63.45
2023-01-19T04:52:52.232Z,63.00
2023-01-19T04:55:59.912Z,63.22
2023-01-19T04:59:06.087Z,63.71
2023-01-19T05:02:12.776Z,63.62
2023-01-19T05:05:21.428Z,63.56
2023-01-19T05:08:27.826Z,64.21
2023-01-19T05:11:33.349Z,64.19
2023-01-19T05:14:39.596Z,63.74
2023-01-19T05:17:45.508Z,63.81
2023-01-19T05:20:54.505Z,63.28
2023-01-19T05:24:00.807Z,63.14
2023-01-19T05:27:07.196Z,63.60
2023-01-19T05:30:14.715Z,63.21
2023-01-19T05:33:21.745Z,63.85
2023-01-19T05:36:31.907Z,63.83
2023-01-19T05:39:38.230Z,63.62
2023-01-19T05:42:43.655Z,63.32
2023-01-19T05:45:49.943Z,64.12
2023-01-19T05:48:55.658Z,63.61
2023-01-19T05:52:04.853Z,63.57
2023-01-19T05:55:11.782Z,63.88
2023-01-19T05:58:18.517Z,63.39
2023-01-19T06:01:23.907Z,64.18
2023-01-19T06:04:30.481Z,64.11
2023-01-19T06:07:39.351Z,64.25
2023-01-19T06:10:45.566Z,64.06
2023-01-19T06:13:51.034Z,64.65
2023-01-19T06:16:57.338Z,65.13
2023-01-19T06:20:03.406Z,65.04
2023-01-19T06:23:12.610Z,65.33
2023-01-19T06:26:18.267Z,65.68
2023-01-19T06:29:24.558Z,65.76
2023-01-19T06:32:31.126Z,65.66
2023-01-19T06:35:37.806Z,65.99
2023-01-19T06:38:46.528Z,66.29
2023-01-19T06:41:52.807Z,66.13
2023-01-19T06:44:58.253Z,66.13
2023-01-19T06:48:04.876Z,66.02
2023-01-19T06:51:10.279Z,65.76
2023-01-19T06:54:19.520Z,65.84
2023-01-19T06:57:26.059Z,65.83
2023-01-19T07:00:32.470Z,66.08
2023-01-19T07:03:40.314Z,65.57
2023-01-19T07:06:46.624Z,65.69
2023-01-19T07:09:55.287Z,65.80
2023-01-19T07:13:02.059Z,65.51
2023-01-19T07:16:09.912Z,65.51
2023-01-19T07:19:16.942Z,65.65
2023-01-19T07:22:22.537Z,65.91
2023-01-19T07:25:32.135Z,66.02
2023-01-19T07:28:37.540Z,65.75
2023-01-19T07:31:43.951Z,66.14
2023-01-19T07:34:49.439Z,65.87
2023-01-19T07:37:55.851Z,66.05
2023-01-19T07:41:10.008Z,65.64
2023-01-19T07:44:16.365Z,65.91
2023-01-19T07:47:22.169Z,66.04
2023-01-19T07:50:29.565Z,65.81
2023-01-19T07:53:35.267Z,66.25
2023-01-19T07:56:44.523Z,66.59
2023-01-19T07:59:49.911Z,66.56
2023-01-19T08:03:01.911Z,66.78
2023-01-19T08:06:09.116Z,66.75
2023-01-19T08:09:15.876Z,66.83
2023-01-19T08:12:24.078Z,67.17
2023-01-19T08:15:30.419Z,66.98
2023-01-19T08:18:35.913Z,66.90
2023-01-19T08:21:42.376Z,66.79
2023-01-19T08:24:50.239Z,66.71
2023-01-19T08:28:00.388Z,66.44
2023-01-19T08:31:19.211Z,66.30
2023-01-19T08:34:27.310Z,66.56
2023-01-19T08:37:34.226Z,65.85
2023-01-19T08:40:43.540Z,65.87
2023-01-19T08:43:51.851Z,65.65
2023-01-19T08:46:58.332Z,66.12
2023-01-19T08:50:04.040Z,65.96
2023-01-19T08:53:10.819Z,65.42
2023-01-19T08:56:18.961Z,65.65
2023-01-19T08:59:29.460Z,65.78
2023-01-19T09:02:35.268Z,66.07
2023-01-19T09:05:42.806Z,65.67
2023-01-19T09:08:49.156Z,66.35
2023-01-19T09:11:57.970Z,66.34
2023-01-19T09:15:06.991Z,66.65
2023-01-19T09:18:17.428Z,66.58
2023-01-19T09:21:22.898Z,66.49
2023-01-19T09:24:29.200Z,66.76
2023-01-19T09:27:35.069Z,66.91
2023-01-19T09:30:45.850Z,66.76
2023-01-19T09:33:51.239Z,66.72
2023-01-19T09:36:57.863Z,66.82
2023-01-19T09:40:03.341Z,67.00
2023-01-19T09:43:21.501Z,67.57
2023-01-19T09:46:42.119Z,67.58
2023-01-19T09:49:58.556Z,68.05
2023-01-19T09:53:19.472Z,68.15
2023-01-19T09:56:27.794Z,68.57
2023-01-19T09:59:36.801Z,68.09
2023-01-19T10:02:53.211Z,68.02
2023-01-19T10:06:07.285Z,67.99
2023-01-19T10:09:34.554Z,68.41
2023-01-19T10:12:55.450Z,68.27
2023-01-19T10:16:25.094Z,68.54
2023-01-19T10:19:41.157Z,68.67
2023-01-19T10:22:52.797Z,68.65
2023-01-19T10:26:03.825Z,68.45
2023-01-19T10:29:18.629Z,68.26
2023-01-19T10:32:27.854Z,68.15
2023-01-19T10:35:37.136Z,68.11
2023-01-19T10:38:42.703Z,68.18
2023-01-19T10:41:55.244Z,68.38
2023-01-19T10:45:00.833Z,67.97
2023-01-19T10:48:11.043Z,68.11
2023-01-19T10:51:20.121Z,67.88
2023-01-19T10:54:30.053Z,67.61
2023-01-19T10:57:48.992Z,67.57
2023-01-19T11:00:55.676Z,66.73
2023-01-19T11:04:05.923Z,66.93
2023-01-19T11:07:25.356Z,67.35
2023-01-19T11:10:33.583Z,67.03
2023-01-19T11:13:39.963Z,67.11
2023-01-19T11:16:52.956Z,67.42
2023-01-19T11:20:05.088Z,67.39
2023-01-19T11:23:29.961Z,67.31
2023-01-19T11:26:44.107Z,67.20
2023-01-19T11:30:00.281Z,67.77
2023-01-19T11:33:08.961Z,67.87
2023-01-19T11:36:22.481Z,68.13
2023-01-19T11:39:35.149Z,67.65
2023-01-19T11:42:41.514Z,68.04
2023-01-19T11:45:50.562Z,68.24
2023-01-19T11:49:02.322Z,68.23
2023-01-19T11:52:25.672Z,68.20
2023-01-19T11:55:46.716Z,68.02
2023-01-19T11:58:53.633Z,68.43
2023-01-19T12:02:07.487Z,68.05
2023-01-19T12:05:23.178Z,68.23
2023-01-19T12:08:37.864Z,68.20
2023-01-19T12:11:53.885Z,67.98
2023-01-19T12:15:09.175Z,68.01
2023-01-19T12:18:25.613Z,67.83
2023-01-19T12:21:31.564Z,68.42
2023-01-19T12:24:50.188Z,68.22
2023-01-19T12:28:01.049Z,68.14
2023-01-19T12:31:08.528Z,67.90
2023-01-19T12:34:46.790Z,67.81
2023-01-19T12:37:53.337Z,67.70
2023-01-19T12:41:26.267Z,67.86
2023-01-19T12:44:37.129Z,68.06
2023-01-19T12:47:43.813Z,68.09
2023-01-19T12:50:50.431Z,68.51
2023-01-19T12:54:01.678Z,68.37
2023-01-19T12:57:22.182Z,68.44
2023-01-19T13:00:39.272Z,68.67
2023-01-19T13:04:04.177Z,68.53
2023-01-19T13:07:18.094Z,68.76
2023-01-19T13:11:19.723Z,68.54
2023-01-19T13:14:40.828Z,68.39
2023-01-19T13:17:56.546Z,68.22
2023-01-19T13:21:07.816Z,67.99
2023-01-19T13:24:29.646Z,67.58
2023-01-19T13:27:38.148Z,68.18
2023-01-19T13:30:59.599Z,68.17
2023-01-19T13:34:17.522Z,68.74
2023-01-19T13:37:32.696Z,68.54
2023-01-19T13:40:42.383Z,68.33
2023-01-19T13:43:50.855Z,68.71
2023-01-19T13:46:59.972Z,68.45
2023-01-19T13:50:21.552Z,68.13
2023-01-19T13:53:28.172Z,68.62
2023-01-19T13:56:34.487Z,68.32
2023-01-19T13:59:44.377Z,68.48
2023-01-19T14:02:59.753Z,68.77
2023-01-19T14:06:08.762Z,68.28
2023-01-19T14:09:21.918Z,68.46
2023-01-19T14:12:27.335Z,68.58
2023-01-19T14:15:38.728Z,68.14
2023-01-19T14:18:44.446Z,68.20
2023-01-19T14:22:03.642Z,68.23
2023-01-19T14:25:33.137Z,68.30
2023-01-19T14:28:47.502Z,68.52
2023-01-19T14:32:06.661Z,68.56
2023-01-19T14:35:30.211Z,68.65
2023-01-19T14:38:39.668Z,68.56
2023-01-19T14:41:52.933Z,68.55
2023-01-19T14:45:04.171Z,68.41
2023-01-19T14:48:22.432Z,68.65
2023-01-19T14:51:32.451Z,68.84
2023-01-19T14:54:47.965Z,68.14
2023-01-19T14:57:53.498Z,67.93
2023-01-19T15:01:00.361Z,67.74
2023-01-19T15:04:06.031Z,68.05
2023-01-19T15:07:22.133Z,68.07
2023-01-19T15:10:30.458Z,68.17
2023-01-19T15:13:36.993Z,68.79
2023-01-19T15:16:44.252Z,68.32
2023-01-19T15:19:50.482Z,68.49
2023-01-19T15:22:55.916Z,68.46
2023-01-19T15:26:08.874Z,68.55
2023-01-19T15:29:25.807Z,68.47
2023-01-19T15:32:32.066Z,68.51
2023-01-19T15:35:37.882Z,68.14
2023-01-19T15:38:44.653Z,69.02
2023-01-19T15:41:53.207Z,67.77
2023-01-19T15:44:59.539Z,68.03
2023-01-19T15:48:09.483Z,67.55
2023-01-19T15:51:17.584Z,67.83
2023-01-19T15:54:23.358Z,67.85
2023-01-19T15:57:34.872Z,67.96
2023-01-19T16:00:40.294Z,67.76
2023-01-19T16:03:47.448Z,68.33
2023-01-19T16:06:53.007Z,68.52
2023-01-19T16:09:59.229Z,68.00
2023-01-19T16:13:09.688Z,68.01
2023-01-19T16:16:20.274Z,68.17
2023-01-19T16:19:26.120Z,68.05
2023-01-19T16:22:32.627Z,67.91
2023-01-19T16:25:38.261Z,67.86
2023-01-19T16:28:47.551Z,67.82
2023-01-19T16:31:54.211Z,67.60
2023-01-19T16:35:00.778Z,67.81
2023-01-19T16:38:06.358Z,67.78
2023-01-19T16:41:13.509Z,67.84
2023-01-19T16:44:21.841Z,67.59
2023-01-19T16:47:28.181Z,67.72
2023-01-19T16:50:33.519Z,67.73
2023-01-19T16:53:40.027Z,67.70
2023-01-19T16:56:45.677Z,67.75
2023-01-19T16:59:54.767Z,67.30
2023-01-19T17:03:00.355Z,67.69
2023-01-19T17:06:06.926Z,67.41
2023-01-19T17:09:13.164Z,67.82
2023-01-19T17:12:19.427Z,67.80
2023-01-19T17:15:27.867Z,67.69
2023-01-19T17:18:38.365Z,67.35
2023-01-19T17:21:43.852Z,67.73
2023-01-19T17:24:50.500Z,67.29
2023-01-19T17:27:55.846Z,67.30
2023-01-19T17:31:12.428Z,67.56
2023-01-19T17:34:17.898Z,67.81
2023-01-19T17:37:24.459Z,67.96
2023-01-19T17:40:29.962Z,68.08
2023-01-19T17:43:40.310Z,68.07
2023-01-19T17:46:51.646Z,67.83
2023-01-19T17:50:03.638Z,67.90
2023-01-19T17:53:09.094Z,68.02
2023-01-19T17:56:19.011Z,67.95
2023-01-19T17:59:24.352Z,67.76
2023-01-19T18:02:34.391Z,68.18
2023-01-19T18:05:39.969Z,67.61
2023-01-19T18:08:49.506Z,67.75
2023-01-19T18:11:57.835Z,67.93
2023-01-19T18:15:05.039Z,67.97
2023-01-19T18:18:25.950Z,67.65
2023-01-19T18:21:45.103Z,67.50
2023-01-19T18:24:51.143Z,67.06
2023-01-19T18:27:57.440Z,67.38
2023-01-19T18:31:11.525Z,67.42
2023-01-19T18:34:23.960Z,67.09
2023-01-19T18:37:29.387Z,67.46
2023-01-19T18:40:41.505Z,68.12
2023-01-19T18:43:54.686Z,67.19
2023-01-19T18:47:00.927Z,67.73
2023-01-19T18:50:11.132Z,67.41
2023-01-19T18:53:17.822Z,67.62
2023-01-19T18:56:23.534Z,67.58
2023-01-19T18:59:29.779Z,67.83
2023-01-19T19:02:36.176Z,67.56
2023-01-19T19:05:46.345Z,68.39
2023-01-19T19:08:53.796Z,68.38
2023-01-19T19:12:00.108Z,68.39
2023-01-19T19:15:05.461Z,67.80
2023-01-19T19:18:14.234Z,68.24
2023-01-19T19:21:25.616Z,68.52
2023-01-19T19:24:32.030Z,67.67
2023-01-19T19:27:37.835Z,68.23
2023-01-19T19:30:44.737Z,68.05
2023-01-19T19:33:52.349Z,68.15
2023-01-19T19:37:01.570Z,68.37
2023-01-19T19:40:07.817Z,68.29
2023-01-19T19:43:14.023Z,68.96
2023-01-19T19:46:24.491Z,68.86
2023-01-19T19:49:31.078Z,69.27
2023-01-19T19:52:45.208Z,69.31
2023-01-19T19:56:00.227Z,68.84
2023-01-19T19:59:06.644Z,69.63
2023-01-19T20:02:15.946Z,69.03
2023-01-19T20:05:21.879Z,69.67
2023-01-19T20:08:31.045Z,69.67
2023-01-19T20:11:37.424Z,69.15
2023-01-19T20:14:43.844Z,69.29
2023-01-19T20:17:49.583Z,69.75
2023-01-19T20:20:56.028Z,69.86
2023-01-19T20:24:09.281Z,69.83
2023-01-19T20:27:16.044Z,69.99
2023-01-19T20:30:21.917Z,69.53
2023-01-19T20:33:28.323Z,69.75
2023-01-19T20:36:34.704Z,70.01
2023-01-19T20:39:44.031Z,69.61
2023-01-19T20:42:49.608Z,69.68
2023-01-19T20:45:56.078Z,70.44
2023-01-19T20:49:01.761Z,70.04
2023-01-19T20:52:08.532Z,70.44
2023-01-19T20:55:16.833Z,70.70
2023-01-19T20:58:23.665Z,70.65
2023-01-19T21:01:29.921Z,70.13
2023-01-19T21:04:36.328Z,70.06
2023-01-19T21:07:42.235Z,69.67
2023-01-19T21:10:51.355Z,70.29
2023-01-19T21:13:58.469Z,70.14
2023-01-19T21:17:04.921Z,70.12
2023-01-19T21:20:12.601Z,69.85
2023-01-19T21:23:20.135Z,70.15
2023-01-19T21:26:30.063Z,70.46
2023-01-19T21:29:36.490Z,69.71
2023-01-19T21:32:42.010Z,69.61
2023-01-19T21:35:54.939Z,70.02
2023-01-19T21:39:01.229Z,69.81
2023-01-19T21:42:11.087Z,69.82
2023-01-19T21:45:17.028Z,70.68
2023-01-19T21:48:23.627Z,69.42
2023-01-19T21:51:29.762Z,69.36
2023-01-19T21:54:36.945Z,69.57
2023-01-19T21:57:45.228Z,70.14
2023-01-19T22:00:51.693Z,69.84
2023-01-19T22:03:59.364Z,69.67
2023-01-19T22:07:05.644Z,69.86
2023-01-19T22:10:14.005Z,70.11
2023-01-19T22:13:23.083Z,69.31
2023-01-19T22:16:30.048Z,69.57
2023-01-19T22:19:36.650Z,69.40
2023-01-19T22:22:42.186Z,69.48
2023-01-19T22:25:49.648Z,69.20
2023-01-19T22:29:01.486Z,69.55
2023-01-19T22:32:08.867Z,69.51
2023-01-19T22:35:15.492Z,69.41
2023-01-19T22:38:22.060Z,69.25
2023-01-19T22:41:31.181Z,68.32
2023-01-19T22:44:40.245Z,68.86
2023-01-19T22:47:45.900Z,68.99
2023-01-19T22:50:52.175Z,68.81
2023-01-19T22:53:58.446Z,68.55
2023-01-19T22:57:07.126Z,68.22
2023-01-19T23:00:18.130Z,68.34
2023-01-19T23:03:24.579Z,68.64
2023-01-19T23:06:33.101Z,68.63
2023-01-19T23:09:40.886Z,68.24
2023-01-19T23:12:48.753Z,68.75
2023-01-19T23:15:57.730Z,68.07
2023-01-19T23:19:04.046Z,68.00
2023-01-19T23:22:10.280Z,67.90
2023-01-19T23:25:15.890Z,67.85
2023-01-19T23:28:22.228Z,67.77
2023-01-19T23:31:33.524Z,67.55
2023-01-19T23:34:39.805Z,67.55
2023-01-19T23:37:45.615Z,67.82
2023-01-19T23:40:51.848Z,68.11
2023-01-19T23:43:57.266Z,67.94
2023-01-19T23:47:06.368Z,67.56
2023-01-19T23:50:14.985Z,67.75
2023-01-19T23:53:21.224Z,67.46
2023-01-19T23:56:30.347Z,67.33
2023-01-19T23:59:36.610Z,67.48
